Time;durP1;ratioP1;P1;durP2;ratioP2;P2;SDS_P1;SDS_P2;PMS_P1;PMS_P2;Temp;Humidity;BMP_temperature;BMP_pressure;BME280_temperature;BME280_humidity;BME280_pressure;Samples;Min_cycle;Max_cycle;Signal;HPM_P1;HPM_P2
2022/11/03 05:03:38;;;;;;;7.28;2.45;;;8.30;99.90;;;;;;5680926;23;20112;-85
2022/11/03 05:06:37;;;;;;;4.32;1.60;;;8.30;99.90;;;;;;4913135;29;20508;-84
2022/11/03 05:09:17;;;;;;;3.97;2.35;;;8.30;99.90;;;;;;4867790;29;20052;-82
2022/11/03 05:11:45;;;;;;;4.72;1.90;;;8.30;99.90;;;;;;4899853;29;20080;-84
2022/11/03 05:14:23;;;;;;;8.18;2.20;;;8.20;99.90;;;;;;4904765;29;20056;-84
2022/11/03 05:16:52;;;;;;;14.35;2.88;;;8.30;99.90;;;;;;4889766;29;20058;-84
2022/11/03 05:19:37;;;;;;;4.00;2.43;;;8.20;99.90;;;;;;4891146;29;20546;-84
2022/11/03 05:22:04;;;;;;;3.75;1.90;;;8.20;99.90;;;;;;4892212;29;20289;-85
2022/11/03 05:24:32;;;;;;;7.57;2.10;;;8.20;99.90;;;;;;4895148;29;20056;-84
2022/11/03 05:26:59;;;;;;;4.47;1.90;;;8.20;99.90;;;;;;4895283;29;20059;-84
2022/11/03 05:29:35;;;;;;;6.07;2.30;;;8.20;99.90;;;;;;4899176;29;20049;-84
2022/11/03 05:32:02;;;;;;;7.22;2.78;;;8.20;99.90;;;;;;4886417;29;20064;-83
2022/11/03 05:34:29;;;;;;;5.85;2.55;;;8.20;99.90;;;;;;4869114;29;20052;-83
2022/11/03 05:37:16;;;;;;;4.15;2.00;;;8.10;99.90;;;;;;4880927;29;20061;-83
2022/11/03 05:39:51;;;;;;;3.42;1.67;;;8.10;99.90;;;;;;4881536;29;20060;-85
2022/11/03 05:42:41;;;;;;;6.93;2.15;;;8.10;99.90;;;;;;4886416;29;20049;-84
2022/11/03 05:45:19;;;;;;;;;;;8.10;99.90;;;;;;4884067;29;20091;-86
2022/11/03 05:47:47;;;;;;;5.80;1.83;;;8.10;99.90;;;;;;4883021;29;19963;-85
2022/11/03 05:50:20;;;;;;;7.93;2.13;;;8.10;99.90;;;;;;4878771;29;20060;-85
2022/11/03 05:52:50;;;;;;;3.55;1.85;;;8.10;99.90;;;;;;4880501;29;20071;-85
2022/11/03 05:55:28;;;;;;;7.68;2.30;;;8.20;99.90;;;;;;4886942;29;20422;-84
2022/11/03 05:57:57;;;;;;;4.15;1.92;;;8.20;99.90;;;;;;4888681;29;20045;-83
2022/11/03 06:00:28;;;;;;;5.57;1.90;;;8.20;99.90;;;;;;4889214;29;20049;-86
2022/11/03 06:02:56;;;;;;;5.45;3.22;;;8.20;99.90;;;;;;4874699;29;20054;-84
2022/11/03 06:05:25;;;;;;;5.50;2.78;;;8.20;99.90;;;;;;4877273;29;20060;-84
2022/11/03 06:07:54;;;;;;;4.95;2.10;;;8.20;99.90;;;;;;4870673;29;20136;-84
2022/11/03 06:10:35;;;;;;;5.75;2.60;;;8.20;99.90;;;;;;4881387;29;20056;-84
2022/11/03 06:13:20;;;;;;;6.63;2.72;;;8.20;99.90;;;;;;4873797;29;20794;-83
2022/11/03 06:15:54;;;;;;;4.10;2.58;;;8.10;99.90;;;;;;4890623;29;20067;-82
2022/11/03 06:18:24;;;;;;;5.72;2.50;;;8.20;99.90;;;;;;4881835;29;20053;-86
2022/11/03 06:20:54;;;;;;;3.88;2.30;;;8.20;99.90;;;;;;4880325;29;20057;-85
2022/11/03 06:23:22;;;;;;;9.88;5.40;;;8.20;99.90;;;;;;4893597;29;20052;-84
2022/11/03 06:25:52;;;;;;;9.23;5.50;;;8.20;99.90;;;;;;4902127;29;20085;-84
2022/11/03 06:28:28;;;;;;;6.00;2.70;;;8.10;99.90;;;;;;4899580;29;20033;-85
2022/11/03 06:30:56;;;;;;;10.15;2.38;;;8.20;99.90;;;;;;4896439;29;20060;-87
2022/11/03 06:33:30;;;;;;;10.95;2.67;;;8.10;99.90;;;;;;4902426;29;20120;-86
2022/11/03 06:36:09;;;;;;;16.08;9.05;;;8.20;99.90;;;;;;4901430;29;20052;-87
2022/11/03 06:38:36;;;;;;;17.80;10.48;;;8.10;99.90;;;;;;4904839;29;20126;-87
2022/11/03 06:41:03;;;;;;;9.23;6.07;;;8.10;99.90;;;;;;4908597;29;20061;-88
2022/11/03 06:43:39;;;;;;;12.88;5.75;;;8.10;99.90;;;;;;4910202;29;20053;-88
2022/11/03 06:46:25;;;;;;;7.80;4.95;;;8.10;99.90;;;;;;4898702;29;20068;-84
2022/11/03 06:48:56;;;;;;;11.13;5.00;;;8.10;99.90;;;;;;4891315;29;20573;-84
2022/11/03 06:51:26;;;;;;;8.00;3.78;;;8.10;99.90;;;;;;4895042;29;20056;-84
2022/11/03 06:53:57;;;;;;;9.43;4.38;;;8.20;99.90;;;;;;4892179;29;20056;-84
2022/11/03 06:56:30;;;;;;;6.38;3.65;;;8.20;99.90;;;;;;4893160;29;20086;-85
2022/11/03 06:58:58;;;;;;;12.50;4.65;;;8.20;99.90;;;;;;4893777;29;20045;-84
2022/11/03 07:01:29;;;;;;;11.77;4.47;;;8.20;99.90;;;;;;4897900;29;20060;-84
2022/11/03 07:04:00;;;;;;;10.35;4.55;;;8.20;99.90;;;;;;4899737;29;20083;-84
2022/11/03 07:06:35;;;;;;;7.97;4.32;;;8.30;99.90;;;;;;4898913;29;20561;-85
2022/11/03 07:09:12;;;;;;;7.75;4.22;;;8.30;99.90;;;;;;4890635;29;20057;-84
2022/11/03 07:11:47;;;;;;;11.55;5.80;;;8.30;99.90;;;;;;4898127;29;20060;-84
2022/11/03 07:14:19;;;;;;;11.55;4.95;;;8.40;99.90;;;;;;4898317;29;20057;-84
2022/11/03 07:16:49;;;;;;;11.77;5.10;;;8.40;99.90;;;;;;4889306;29;20057;-84
2022/11/03 07:19:29;;;;;;;10.77;5.68;;;8.40;99.90;;;;;;4889766;29;20069;-85
2022/11/03 07:22:09;;;;;;;12.02;5.15;;;8.50;99.90;;;;;;4882667;29;20061;-86
2022/11/03 07:24:40;;;;;;;10.57;4.88;;;8.60;99.90;;;;;;4889962;29;20061;-84
2022/11/03 07:27:25;;;;;;;7.97;5.45;;;8.60;99.90;;;;;;4889045;29;20053;-84
2022/11/03 07:29:59;;;;;;;8.13;4.30;;;8.60;99.90;;;;;;4893793;29;20060;-86
2022/11/03 07:32:32;;;;;;;8.75;5.15;;;8.70;99.90;;;;;;4898346;29;20684;-82
2022/11/03 07:35:08;;;;;;;11.68;6.20;;;8.80;99.90;;;;;;4886603;29;20136;-85
2022/11/03 07:37:35;;;;;;;11.85;4.60;;;8.80;99.90;;;;;;4891414;29;20083;-83
2022/11/03 07:40:10;;;;;;;9.30;5.57;;;8.90;99.90;;;;;;4887033;29;20418;-86
2022/11/03 07:42:38;;;;;;;11.95;4.85;;;8.90;99.90;;;;;;4888482;29;20077;-85
2022/11/03 07:45:31;;;;;;;13.02;6.10;;;9.00;99.90;;;;;;4892786;29;20101;-85
2022/11/03 07:48:03;;;;;;;7.65;5.10;;;9.10;99.90;;;;;;4890843;29;20057;-85
2022/11/03 07:50:30;;;;;;;9.82;4.40;;;9.10;99.90;;;;;;4894144;29;20056;-85
2022/11/03 07:52:58;;;;;;;7.35;5.18;;;9.20;99.90;;;;;;4890223;29;20053;-86
2022/11/03 07:55:25;;;;;;;10.38;5.07;;;9.30;99.90;;;;;;4881788;29;20050;-84
2022/11/03 07:57:52;;;;;;;9.20;5.70;;;9.40;99.90;;;;;;4894076;29;20055;-85
2022/11/03 08:00:21;;;;;;;7.32;4.60;;;9.40;99.90;;;;;;4892688;29;20445;-85
2022/11/03 08:02:53;;;;;;;10.73;5.15;;;9.40;99.90;;;;;;4893863;29;20114;-85
2022/11/03 08:05:21;;;;;;;9.40;5.18;;;9.50;99.90;;;;;;4891328;29;20096;-85
2022/11/03 08:07:48;;;;;;;9.45;4.95;;;9.60;99.90;;;;;;4895519;29;20064;-83
2022/11/03 08:10:15;;;;;;;13.07;6.28;;;9.60;99.90;;;;;;4880643;29;20077;-84
2022/11/03 08:12:42;;;;;;;19.90;10.55;;;9.70;99.90;;;;;;4891987;29;20053;-85
2022/11/03 08:15:10;;;;;;;16.20;8.10;;;9.70;99.90;;;;;;4893154;29;20498;-85
2022/11/03 08:17:37;;;;;;;18.77;9.50;;;9.80;99.90;;;;;;4890055;29;20087;-85
2022/11/03 08:20:04;;;;;;;18.30;8.30;;;9.90;99.90;;;;;;4894582;29;20072;-84
2022/11/03 08:22:31;;;;;;;17.95;8.27;;;9.90;99.90;;;;;;4894349;29;20072;-84
2022/11/03 08:24:59;;;;;;;15.82;8.10;;;10.10;99.90;;;;;;4895726;29;20094;-85
2022/11/03 08:27:26;;;;;;;11.55;7.95;;;10.20;99.90;;;;;;4896822;29;20068;-85
2022/11/03 08:29:53;;;;;;;17.55;8.07;;;10.30;99.90;;;;;;4902564;29;20079;-86
2022/11/03 08:32:20;;;;;;;19.23;8.52;;;10.30;99.90;;;;;;4897114;29;20053;-85
2022/11/03 08:34:47;;;;;;;15.13;7.40;;;10.40;99.90;;;;;;4877311;29;20053;-85
2022/11/03 08:37:14;;;;;;;17.33;7.80;;;10.50;99.90;;;;;;4891468;29;20053;-85
2022/11/03 08:39:41;;;;;;;13.35;6.63;;;10.60;99.90;;;;;;4892994;29;20053;-85
2022/11/03 08:42:08;;;;;;;14.40;7.22;;;10.60;99.90;;;;;;4892604;29;20135;-86
2022/11/03 08:44:35;;;;;;;12.30;6.63;;;10.70;99.90;;;;;;4889736;29;20057;-85
2022/11/03 08:47:01;;;;;;;13.13;7.82;;;10.70;99.90;;;;;;4891088;29;20576;-83
2022/11/03 08:49:28;;;;;;;20.75;8.82;;;10.80;99.90;;;;;;4893267;29;20060;-86
2022/11/03 08:51:55;;;;;;;15.90;8.10;;;10.80;99.90;;;;;;4894500;29;20060;-83
2022/11/03 08:54:21;;;;;;;16.40;7.55;;;10.80;99.90;;;;;;4892827;29;20519;-85
2022/11/03 08:56:48;;;;;;;15.30;7.57;;;10.90;99.90;;;;;;4895725;29;20045;-84
2022/11/03 08:59:16;;;;;;;13.38;7.45;;;10.90;99.90;;;;;;4897168;29;20121;-85
2022/11/03 09:01:43;;;;;;;13.20;6.82;;;11.00;99.90;;;;;;4893738;29;20055;-85
2022/11/03 09:04:10;;;;;;;19.70;7.75;;;11.00;99.90;;;;;;4885974;29;20136;-84
2022/11/03 09:06:37;;;;;;;13.10;7.30;;;11.10;99.90;;;;;;4895825;29;20052;-85
2022/11/03 09:09:04;;;;;;;14.10;6.70;;;11.20;99.90;;;;;;4887659;29;20140;-83
2022/11/03 09:11:51;;;;;;;12.82;6.63;;;11.30;99.90;;;;;;4900830;29;20048;-84
2022/11/03 09:14:17;;;;;;;15.60;7.35;;;11.40;99.90;;;;;;4894906;29;20057;-85
2022/11/03 09:16:44;;;;;;;13.10;6.88;;;11.40;99.90;;;;;;4894284;29;20060;-85
2022/11/03 09:19:11;;;;;;;13.98;8.00;;;11.60;99.90;;;;;;4898029;29;20052;-84
2022/11/03 09:21:38;;;;;;;8.85;6.28;;;11.70;99.90;;;;;;4890116;29;20050;-86
2022/11/03 09:24:05;;;;;;;17.05;6.82;;;11.80;99.90;;;;;;4895093;29;20045;-86
2022/11/03 09:26:31;;;;;;;12.50;6.10;;;11.80;99.90;;;;;;4893413;29;20117;-84
2022/11/03 09:28:58;;;;;;;14.40;6.93;;;11.90;99.90;;;;;;4894339;29;20532;-85
2022/11/03 09:31:27;;;;;;;14.88;5.90;;;12.00;99.90;;;;;;4893285;29;20061;-84
2022/11/03 09:33:54;;;;;;;18.70;6.60;;;12.00;99.90;;;;;;4901070;29;20074;-84
2022/11/03 09:36:20;;;;;;;17.13;7.15;;;12.10;99.90;;;;;;4888225;29;20053;-86
2022/11/03 09:38:47;;;;;;;11.48;6.55;;;12.20;99.90;;;;;;4900831;29;20048;-85
2022/11/03 09:41:16;;;;;;;11.63;6.28;;;12.20;99.90;;;;;;4885588;29;20053;-86
2022/11/03 09:44:01;;;;;;;13.57;6.28;;;12.30;99.90;;;;;;4893039;29;20187;-84
2022/11/03 09:46:29;;;;;;;10.85;5.47;;;12.40;99.90;;;;;;4882711;29;20053;-85
2022/11/03 09:48:55;;;;;;;14.27;5.80;;;12.60;99.90;;;;;;4898772;29;20052;-86
2022/11/03 09:51:24;;;;;;;17.15;4.93;;;12.60;99.90;;;;;;4898831;29;20053;-85
2022/11/03 09:53:51;;;;;;;6.40;3.75;;;12.70;99.90;;;;;;4886300;29;20515;-85
2022/11/03 09:56:21;;;;;;;5.35;2.35;;;12.90;99.90;;;;;;4891878;29;20494;-86
2022/11/03 09:58:48;;;;;;;3.95;1.70;;;13.00;99.90;;;;;;4887245;29;20056;-85
2022/11/03 10:01:20;;;;;;;2.17;1.10;;;13.10;99.90;;;;;;4888768;29;20112;-85
2022/11/03 10:03:46;;;;;;;4.20;1.70;;;13.30;99.90;;;;;;4885072;29;20135;-85
2022/11/03 10:06:15;;;;;;;2.97;1.50;;;13.50;99.90;;;;;;4888282;29;20056;-85
2022/11/03 10:08:45;;;;;;;3.50;1.27;;;13.60;99.90;;;;;;4888751;29;20053;-84
2022/11/03 10:11:14;;;;;;;2.20;1.20;;;13.70;99.90;;;;;;4890612;29;20542;-85
2022/11/03 10:13:46;;;;;;;3.13;1.20;;;13.90;99.90;;;;;;4888352;29;20057;-86
2022/11/03 10:16:17;;;;;;;4.22;1.48;;;14.10;99.90;;;;;;4892672;29;20067;-86
2022/11/03 10:18:44;;;;;;;6.75;1.40;;;14.10;99.90;;;;;;4890744;29;20083;-85
2022/11/03 10:21:27;;;;;;;1.75;1.25;;;14.20;99.90;;;;;;4891452;29;20049;-85
2022/11/03 10:23:54;;;;;;;1.90;1.20;;;14.40;99.90;;;;;;4895737;29;20083;-85
2022/11/03 10:26:21;;;;;;;2.17;1.25;;;14.40;99.90;;;;;;4900236;29;20069;-85
2022/11/03 10:29:26;;;;;;;2.65;1.50;;;14.50;99.90;;;;;;4897338;29;20108;-85
2022/11/03 10:31:57;;;;;;;2.50;1.40;;;14.60;99.90;;;;;;4856848;29;20065;-84
2022/11/03 10:34:25;;;;;;;2.78;1.52;;;14.70;99.90;;;;;;4895920;29;20063;-86
2022/11/03 10:37:25;;;;;;;2.75;1.70;;;14.70;99.90;;;;;;4895670;29;20082;-85
2022/11/03 10:39:53;;;;;;;3.33;1.65;;;14.70;99.90;;;;;;4878073;29;20057;-85
2022/11/03 10:42:20;;;;;;;3.20;1.30;;;14.80;99.90;;;;;;4891216;29;20049;-86
2022/11/03 10:44:50;;;;;;;2.30;1.27;;;14.80;99.90;;;;;;4889453;29;20057;-85
2022/11/03 10:47:33;;;;;;;2.70;0.80;;;14.80;99.90;;;;;;4895033;29;20065;-85
2022/11/03 10:50:19;;;;;;;4.18;1.23;;;14.90;99.90;;;;;;4890860;29;20065;-86
2022/11/03 10:52:46;;;;;;;2.05;0.90;;;15.00;99.90;;;;;;4913465;29;20463;-84
2022/11/03 10:55:13;;;;;;;2.63;1.30;;;14.90;99.90;;;;;;4886607;29;20149;-86
2022/11/03 10:57:39;;;;;;;1.50;1.05;;;15.00;99.90;;;;;;4884040;29;20451;-86
2022/11/03 11:00:11;;;;;;;1.52;1.00;;;15.00;99.90;;;;;;4894984;29;20063;-86
2022/11/03 11:02:41;;;;;;;4.75;1.20;;;15.00;99.90;;;;;;4879925;29;20064;-86
2022/11/03 11:05:22;;;;;;;2.25;1.00;;;15.00;99.90;;;;;;4882483;29;20562;-86
2022/11/03 11:07:51;;;;;;;2.10;1.08;;;15.10;99.90;;;;;;4903130;29;20453;-85
2022/11/03 11:10:26;;;;;;;1.48;0.90;;;15.20;99.90;;;;;;4880460;29;20121;-85
2022/11/03 11:13:05;;;;;;;2.15;1.00;;;15.30;99.90;;;;;;4882136;29;20056;-84
2022/11/03 11:15:44;;;;;;;1.52;1.10;;;15.30;99.90;;;;;;4887689;29;20134;-85
2022/11/03 11:18:31;;;;;;;1.58;1.10;;;15.40;99.90;;;;;;4886989;29;20057;-83
2022/11/03 11:21:14;;;;;;;1.85;1.00;;;15.50;99.90;;;;;;4881882;29;20053;-85
2022/11/03 11:23:40;;;;;;;1.92;1.00;;;15.60;99.90;;;;;;4901613;29;20049;-86
2022/11/03 11:26:25;;;;;;;2.38;1.10;;;15.70;99.90;;;;;;4890663;29;20052;-85
2022/11/03 11:29:07;;;;;;;3.53;1.00;;;15.70;99.90;;;;;;4883907;29;20049;-86
2022/11/03 11:31:35;;;;;;;1.63;1.15;;;15.80;99.90;;;;;;4891353;29;20160;-84
2022/11/03 11:34:07;;;;;;;3.78;1.20;;;15.80;99.90;;;;;;4887585;29;20063;-86
2022/11/03 11:36:42;;;;;;;1.27;1.17;;;15.80;99.90;;;;;;4894883;29;20408;-84
2022/11/03 11:39:39;;;;;;;1.80;0.98;;;15.80;99.90;;;;;;4887445;29;20056;-86
2022/11/03 11:42:13;;;;;;;0.70;0.70;;;15.80;99.90;;;;;;4884598;29;20055;-86
2022/11/03 11:44:46;;;;;;;8.50;1.30;;;15.90;99.90;;;;;;4877310;29;20104;-85
2022/11/03 11:47:39;;;;;;;1.88;1.15;;;15.90;99.90;;;;;;4880400;29;20053;-86
2022/11/03 11:50:06;;;;;;;1.90;1.00;;;16.00;99.90;;;;;;4895535;29;20052;-85
2022/11/03 11:52:48;;;;;;;2.60;1.30;;;16.00;99.90;;;;;;4887045;29;20060;-84
2022/11/03 11:55:23;;;;;;;3.08;1.50;;;16.00;99.90;;;;;;4891429;29;20061;-84
2022/11/03 11:57:52;;;;;;;1.38;1.10;;;16.00;99.90;;;;;;4891287;29;20052;-86
2022/11/03 12:00:22;;;;;;;2.38;1.30;;;16.00;99.90;;;;;;4900351;29;20055;-86
2022/11/03 12:02:49;;;;;;;;;;;16.00;99.90;;;;;;4906173;29;20053;-85
2022/11/03 12:05:29;;;;;;;2.30;1.10;;;16.00;99.90;;;;;;4910088;29;19923;-85
2022/11/03 12:07:56;;;;;;;4.60;1.15;;;16.00;99.90;;;;;;4902917;29;20101;-85
2022/11/03 12:10:30;;;;;;;5.07;1.30;;;16.00;99.90;;;;;;4910158;29;20053;-86
2022/11/03 12:12:58;;;;;;;1.83;1.15;;;16.00;99.90;;;;;;4910113;29;20106;-84
2022/11/03 12:15:47;;;;;;;2.88;0.98;;;16.00;99.90;;;;;;4885130;29;20053;-84
2022/11/03 12:18:33;;;;;;;3.50;0.90;;;16.00;99.90;;;;;;4895792;29;20112;-84
2022/11/03 12:21:12;;;;;;;2.25;1.10;;;16.10;99.90;;;;;;4890691;29;20185;-84
2022/11/03 12:23:40;;;;;;;3.22;1.25;;;16.10;99.90;;;;;;4890432;29;20061;-87
2022/11/03 12:26:23;;;;;;;1.20;1.10;;;16.10;99.90;;;;;;4891002;29;20053;-85
2022/11/03 12:28:50;;;;;;;3.53;1.30;;;16.20;99.90;;;;;;4876540;29;20060;-84
2022/11/03 12:31:17;;;;;;;1.70;0.90;;;16.30;99.90;;;;;;4886495;29;20056;-85
2022/11/03 12:33:43;;;;;;;4.65;1.30;;;16.30;99.90;;;;;;4885062;29;20133;-84
2022/11/03 12:36:10;;;;;;;2.63;1.25;;;16.30;99.90;;;;;;4886910;29;20438;-86
2022/11/03 12:38:37;;;;;;;3.97;1.90;;;16.40;99.90;;;;;;4894116;29;20056;-84
2022/11/03 12:41:24;;;;;;;2.40;1.20;;;16.30;99.90;;;;;;4872116;29;20053;-85
2022/11/03 12:43:52;;;;;;;3.38;1.27;;;16.40;99.90;;;;;;4886715;29;20044;-85
2022/11/03 12:46:21;;;;;;;3.20;1.15;;;16.40;99.90;;;;;;4889390;29;20057;-85
2022/11/03 12:48:57;;;;;;;1.80;1.25;;;16.50;99.90;;;;;;4889413;29;20057;-85
2022/11/03 12:51:25;;;;;;;2.80;1.13;;;16.50;99.90;;;;;;4890485;29;20053;-86
2022/11/03 12:53:54;;;;;;;3.55;1.20;;;16.50;99.90;;;;;;4886154;29;20053;-85
2022/11/03 12:56:24;;;;;;;2.42;1.20;;;16.50;99.90;;;;;;4888474;29;20057;-84
2022/11/03 12:58:51;;;;;;;5.27;1.33;;;16.50;99.90;;;;;;4870939;29;20053;-86
2022/11/03 13:01:23;;;;;;;3.05;1.20;;;16.50;99.90;;;;;;4891082;29;20056;-85
2022/11/03 13:03:58;;;;;;;2.70;1.30;;;16.50;99.90;;;;;;4887026;29;20046;-85
2022/11/03 13:06:33;;;;;;;2.60;1.23;;;16.60;99.90;;;;;;4878668;29;20105;-86
2022/11/03 13:09:02;;;;;;;3.33;1.42;;;16.50;99.90;;;;;;4886090;29;20057;-84
2022/11/03 13:15:53;;;;;;;2.53;1.38;;;16.60;99.90;;;;;;4833027;29;20427;-86
2022/11/03 13:18:34;;;;;;;3.05;1.98;;;16.50;99.90;;;;;;4890541;29;20049;-85
2022/11/03 13:24:31;;;;;;;2.40;1.13;;;16.50;99.90;;;;;;4891499;29;20063;-85
2022/11/03 13:27:11;;;;;;;3.22;1.58;;;16.40;99.90;;;;;;4890145;29;20052;-85
2022/11/03 13:29:41;;;;;;;4.30;1.40;;;16.40;99.90;;;;;;4890842;29;20059;-85
2022/11/03 13:32:26;;;;;;;4.07;1.90;;;16.40;99.90;;;;;;4897525;29;20105;-86
2022/11/03 13:34:56;;;;;;;3.28;1.50;;;16.30;99.90;;;;;;4894803;29;20112;-85
2022/11/03 13:37:25;;;;;;;3.30;1.67;;;16.30;99.90;;;;;;4893052;29;20079;-85
2022/11/03 13:39:59;;;;;;;3.28;1.75;;;16.30;99.90;;;;;;4891462;29;20053;-86
2022/11/03 13:42:38;;;;;;;2.33;1.38;;;16.30;99.90;;;;;;4887340;29;20053;-86
2022/11/03 13:45:07;;;;;;;2.53;1.40;;;16.30;99.90;;;;;;4883131;29;20045;-83
2022/11/03 13:47:37;;;;;;;4.05;1.40;;;16.30;99.90;;;;;;4884490;29;20104;-85
2022/11/03 13:50:24;;;;;;;1.85;1.20;;;16.30;99.90;;;;;;4881515;29;20060;-85
2022/11/03 13:52:59;;;;;;;4.07;1.35;;;16.30;99.90;;;;;;4879064;29;20057;-85
2022/11/03 13:55:54;;;;;;;;;;;16.30;99.90;;;;;;4895733;29;20057;-86
2022/11/03 13:58:33;;;;;;;2.20;1.30;;;16.30;99.90;;;;;;4882413;29;19991;-84
2022/11/03 14:01:26;;;;;;;2.17;1.20;;;16.30;99.90;;;;;;4874318;29;20049;-84
2022/11/03 14:03:53;;;;;;;1.95;1.35;;;16.40;99.90;;;;;;4885014;29;20053;-85
2022/11/03 14:06:50;;;;;;;2.63;1.48;;;16.40;99.90;;;;;;4890054;29;20060;-88
2022/11/03 14:09:27;;;;;;;2.55;1.38;;;16.40;99.90;;;;;;4886977;29;20056;-85
2022/11/03 14:14:50;;;;;;;2.60;1.45;;;16.50;99.90;;;;;;4892229;29;20518;-86
2022/11/03 14:17:18;;;;;;;4.00;1.35;;;16.50;99.90;;;;;;4888971;29;20465;-83
2022/11/03 14:19:47;;;;;;;3.55;1.52;;;16.50;99.90;;;;;;4887191;29;20117;-83
2022/11/03 14:22:20;;;;;;;2.03;1.38;;;16.40;99.90;;;;;;4887624;29;20067;-84
2022/11/03 14:24:47;;;;;;;2.45;1.30;;;16.40;99.90;;;;;;4896224;29;20470;-85
2022/11/03 14:27:14;;;;;;;4.93;1.27;;;16.40;99.90;;;;;;4889871;29;20111;-86
2022/11/03 14:29:48;;;;;;;7.70;1.30;;;16.30;99.90;;;;;;4890390;29;20064;-84
2022/11/03 14:32:16;;;;;;;2.85;1.40;;;16.30;99.90;;;;;;4888725;29;20072;-84
2022/11/03 14:34:43;;;;;;;4.72;1.33;;;16.30;99.90;;;;;;4885277;29;20086;-86
2022/11/03 14:37:10;;;;;;;2.30;1.15;;;16.30;99.90;;;;;;4892330;29;20105;-82
2022/11/03 14:39:37;;;;;;;2.05;1.63;;;16.30;99.90;;;;;;4890434;29;20091;-84
2022/11/03 14:42:07;;;;;;;2.58;1.23;;;16.30;99.90;;;;;;4888613;29;20709;-83
2022/11/03 14:44:35;;;;;;;;;;;16.30;99.90;;;;;;4892327;29;20064;-86
2022/11/03 14:47:04;;;;;;;4.03;1.35;;;16.30;99.90;;;;;;4896492;29;19923;-84
2022/11/03 14:49:32;;;;;;;2.10;1.10;;;16.20;99.90;;;;;;4896644;29;20449;-85
2022/11/03 14:52:00;;;;;;;3.83;1.20;;;16.20;99.90;;;;;;4892503;29;20059;-85
2022/11/03 14:54:29;;;;;;;1.60;1.20;;;16.20;99.90;;;;;;4895576;29;20055;-84
2022/11/03 14:56:56;;;;;;;2.72;1.02;;;16.30;99.90;;;;;;4889190;29;20095;-84
2022/11/03 14:59:23;;;;;;;5.40;1.20;;;16.20;99.90;;;;;;4879058;29;20046;-83
2022/11/03 15:01:51;;;;;;;2.90;1.67;;;16.20;99.90;;;;;;4890432;29;20076;-84
2022/11/03 15:04:19;;;;;;;2.90;1.33;;;16.20;99.90;;;;;;4877381;29;20049;-84
2022/11/03 15:06:46;;;;;;;2.35;1.02;;;16.20;99.90;;;;;;4884514;29;20052;-85
2022/11/03 15:09:13;;;;;;;3.83;1.13;;;16.20;99.90;;;;;;4883037;29;20132;-85
2022/11/03 15:11:41;;;;;;;2.63;1.35;;;16.20;99.90;;;;;;4883532;29;20116;-83
2022/11/03 15:14:09;;;;;;;2.00;1.30;;;16.10;99.90;;;;;;4889869;29;20053;-86
2022/11/03 15:16:36;;;;;;;1.42;1.00;;;16.10;99.90;;;;;;4879944;29;20051;-86
2022/11/03 15:19:04;;;;;;;3.42;1.33;;;16.00;99.90;;;;;;4883710;29;20077;-83
2022/11/03 15:21:32;;;;;;;3.20;1.52;;;16.00;99.90;;;;;;4884893;29;20056;-85
2022/11/03 15:24:09;;;;;;;3.10;1.20;;;16.00;99.90;;;;;;4894434;29;20068;-88
2022/11/03 15:26:56;;;;;;;5.57;1.55;;;16.00;99.90;;;;;;4895460;29;20179;-84
2022/11/03 15:29:23;;;;;;;2.55;1.20;;;16.00;99.90;;;;;;4895787;29;20156;-85
2022/11/03 15:31:49;;;;;;;8.52;2.25;;;15.90;99.90;;;;;;4892450;29;20057;-85
2022/11/03 15:34:16;;;;;;;3.55;1.20;;;15.90;99.90;;;;;;4885561;29;20045;-85
2022/11/03 15:36:44;;;;;;;4.72;1.40;;;15.90;99.90;;;;;;4888368;29;20139;-85
2022/11/03 15:39:12;;;;;;;2.25;1.10;;;15.90;99.90;;;;;;4887029;29;20065;-84
2022/11/03 15:41:38;;;;;;;3.70;1.20;;;16.00;99.90;;;;;;4893274;29;20585;-86
2022/11/03 15:44:05;;;;;;;3.72;1.55;;;16.00;99.90;;;;;;4890347;29;20075;-85
2022/11/03 15:46:31;;;;;;;4.07;1.13;;;16.00;99.90;;;;;;4886967;29;20045;-84
2022/11/03 15:48:59;;;;;;;3.22;1.13;;;16.00;99.90;;;;;;4885053;29;20052;-85
2022/11/03 15:51:26;;;;;;;2.38;1.20;;;16.00;99.90;;;;;;4887559;29;20258;-86
2022/11/03 15:53:52;;;;;;;3.25;1.40;;;16.10;99.90;;;;;;4890562;29;20055;-84
2022/11/03 15:56:25;;;;;;;3.97;1.30;;;16.10;99.90;;;;;;4879004;29;20470;-86
2022/11/03 15:58:52;;;;;;;2.08;1.10;;;16.10;99.90;;;;;;4886784;29;20048;-84
2022/11/03 16:01:19;;;;;;;6.38;1.20;;;16.00;99.90;;;;;;4886090;29;20053;-86
2022/11/03 16:03:46;;;;;;;2.00;1.10;;;16.00;99.90;;;;;;4888443;29;20097;-83
2022/11/03 16:06:12;;;;;;;2.08;1.10;;;16.00;99.90;;;;;;4889526;29;20044;-82
2022/11/03 16:09:00;;;;;;;1.58;1.20;;;16.00;99.90;;;;;;4895493;29;20147;-82
2022/11/03 16:11:27;;;;;;;6.88;1.85;;;16.00;99.90;;;;;;4893987;29;20059;-84
2022/11/03 16:13:54;;;;;;;2.92;2.05;;;16.00;99.90;;;;;;4897491;29;20135;-83
2022/11/03 16:16:21;;;;;;;4.68;1.48;;;16.00;99.90;;;;;;4889118;29;20077;-84
2022/11/03 16:18:47;;;;;;;1.45;1.02;;;15.90;99.90;;;;;;4899033;29;20056;-85
2022/11/03 16:21:14;;;;;;;6.47;1.52;;;15.90;99.90;;;;;;4899711;29;20105;-89
2022/11/03 16:23:41;;;;;;;4.15;1.30;;;15.90;99.90;;;;;;4899151;29;20101;-87
2022/11/03 16:26:09;;;;;;;5.90;1.88;;;15.90;99.90;;;;;;4891904;29;20061;-84
2022/11/03 16:28:35;;;;;;;6.07;2.47;;;15.80;99.90;;;;;;4892298;29;20073;-87
2022/11/03 16:31:02;;;;;;;6.00;2.28;;;15.80;99.90;;;;;;4895679;29;20053;-87
2022/11/03 16:33:29;;;;;;;9.88;2.05;;;15.80;99.90;;;;;;4889182;29;20427;-85
2022/11/03 16:35:56;;;;;;;6.25;1.40;;;15.80;99.90;;;;;;4898017;29;20063;-85
2022/11/03 16:38:23;;;;;;;1.83;1.38;;;15.70;99.90;;;;;;4893197;29;20060;-84
2022/11/03 16:40:50;;;;;;;3.85;1.58;;;15.80;99.90;;;;;;4893420;29;20387;-85
2022/11/03 16:43:16;;;;;;;4.30;1.50;;;15.80;99.90;;;;;;4882045;29;20057;-86
2022/11/03 16:45:43;;;;;;;5.03;2.13;;;15.70;99.90;;;;;;4893302;29;20049;-87
2022/11/03 16:48:10;;;;;;;4.50;1.85;;;15.70;99.90;;;;;;4888798;29;20061;-84
2022/11/03 16:50:37;;;;;;;2.80;1.60;;;15.60;99.90;;;;;;4897614;29;20064;-86
2022/11/03 16:53:10;;;;;;;4.50;1.83;;;15.60;99.90;;;;;;4900603;29;20076;-86
2022/11/03 16:55:36;;;;;;;3.58;1.80;;;15.60;99.90;;;;;;4899625;29;20057;-84
2022/11/03 16:58:03;;;;;;;1.95;1.33;;;15.50;99.90;;;;;;4901674;29;20558;-85
2022/11/03 17:00:30;;;;;;;3.35;1.70;;;15.50;99.90;;;;;;4890185;29;20051;-85
2022/11/03 17:02:58;;;;;;;6.13;1.88;;;15.50;99.90;;;;;;4899854;29;20538;-85
2022/11/03 17:05:25;;;;;;;7.38;3.85;;;15.50;99.90;;;;;;4899171;29;20060;-86
2022/11/03 17:07:52;;;;;;;3.35;1.92;;;15.40;99.90;;;;;;4894281;29;20057;-84
2022/11/03 17:10:20;;;;;;;7.28;4.20;;;15.40;99.90;;;;;;4895887;29;20057;-85
2022/11/03 17:12:48;;;;;;;6.10;5.45;;;15.40;99.90;;;;;;4878155;29;20164;-86
2022/11/03 17:15:16;;;;;;;6.15;3.45;;;15.30;99.90;;;;;;4899282;29;20698;-84
2022/11/03 17:17:43;;;;;;;6.50;2.85;;;15.20;99.90;;;;;;4895542;29;20056;-83
2022/11/03 17:20:10;;;;;;;4.55;2.30;;;15.20;99.90;;;;;;4891098;29;20048;-84
2022/11/03 17:22:37;;;;;;;5.13;2.40;;;15.10;99.90;;;;;;4888121;29;20475;-84
2022/11/03 17:25:08;;;;;;;5.88;2.60;;;15.10;99.90;;;;;;4882814;29;20103;-87
2022/11/03 17:27:45;;;;;;;7.70;2.63;;;15.00;99.90;;;;;;4899723;29;20049;-85
2022/11/03 17:30:21;;;;;;;5.13;2.42;;;14.90;99.90;;;;;;4891196;29;20065;-84
2022/11/03 17:32:49;;;;;;;5.40;2.90;;;14.90;99.90;;;;;;4888381;29;20061;-85
2022/11/03 17:35:22;;;;;;;3.95;2.38;;;14.70;99.90;;;;;;4889766;29;20487;-85
2022/11/03 17:37:50;;;;;;;3.92;2.30;;;14.60;99.90;;;;;;4894601;29;20109;-84
2022/11/03 17:40:24;;;;;;;4.22;1.98;;;14.50;99.90;;;;;;4897038;29;20040;-86
2022/11/03 17:42:51;;;;;;;6.47;2.22;;;14.30;99.90;;;;;;4883393;29;20184;-86
2022/11/03 17:45:20;;;;;;;6.40;2.30;;;14.20;99.90;;;;;;4882047;29;20052;-87
2022/11/03 17:47:50;;;;;;;3.50;2.25;;;14.10;99.90;;;;;;4897926;29;20053;-86
2022/11/03 17:50:19;;;;;;;5.20;2.37;;;14.00;99.90;;;;;;4887757;29;20055;-86
2022/11/03 17:52:47;;;;;;;3.33;2.20;;;13.90;99.90;;;;;;4894049;29;20056;-86
2022/11/03 17:55:27;;;;;;;5.38;2.28;;;13.90;99.90;;;;;;4891660;29;20045;-85
2022/11/03 17:57:55;;;;;;;;;;;13.80;99.90;;;;;;4897304;29;20059;-87
2022/11/03 18:00:24;;;;;;;3.22;1.88;;;13.70;99.90;;;;;;4888146;29;19976;-85
2022/11/03 18:02:54;;;;;;;3.47;1.88;;;13.80;99.90;;;;;;4896133;29;20510;-84
2022/11/03 18:05:28;;;;;;;3.40;2.30;;;13.80;99.90;;;;;;4891845;29;20044;-86
2022/11/03 18:08:00;;;;;;;4.20;2.20;;;13.80;99.90;;;;;;4889007;29;20136;-87
2022/11/03 18:10:30;;;;;;;2.40;2.15;;;13.90;99.90;;;;;;4896559;29;20067;-85
2022/11/03 18:13:15;;;;;;;5.53;2.70;;;13.80;99.90;;;;;;4887495;29;20064;-86
2022/11/03 18:15:59;;;;;;;5.38;2.88;;;13.90;99.90;;;;;;4886806;29;20312;-85
2022/11/03 18:18:33;;;;;;;7.47;4.38;;;13.90;99.90;;;;;;4895426;29;20058;-85
2022/11/03 18:21:00;;;;;;;8.80;6.28;;;13.90;99.90;;;;;;4897869;29;20048;-87
2022/11/03 18:23:33;;;;;;;9.15;5.18;;;13.90;99.90;;;;;;4902250;29;20060;-84